sensor_id;sensor_type;location;lat;lon;timestamp;pressure;altitude;pressure_sealevel;temperature;humidity
38630;BME280;24384;51.988;4.644;2024-01-30T00:01:11;102504.63;;;6.41;100.00
38630;BME280;24384;51.988;4.644;2024-01-30T00:03:36;102507.31;;;6.48;100.00
38630;BME280;24384;51.988;4.644;2024-01-30T00:06:03;102512.59;;;6.52;100.00
38630;BME280;24384;51.988;4.644;2024-01-30T00:08:29;102514.38;;;6.58;100.00
38630;BME280;24384;51.988;4.644;2024-01-30T00:10:54;102501.28;;;6.58;100.00
38630;BME280;24384;51.988;4.644;2024-01-30T00:13:20;102502.19;;;6.60;100.00
38630;BME280;24384;51.988;4.644;2024-01-30T00:15:45;102507.50;;;6.65;100.00
38630;BME280;24384;51.988;4.644;2024-01-30T00:18:11;102508.38;;;6.67;100.00
38630;BME280;24384;51.988;4.644;2024-01-30T00:20:36;102509.34;;;6.79;100.00
38630;BME280;24384;51.988;4.644;2024-01-30T00:23:01;102498.00;;;6.80;100.00
38630;BME280;24384;51.988;4.644;2024-01-30T00:25:27;102503.31;;;6.87;100.00
38630;BME280;24384;51.988;4.644;2024-01-30T00:27:52;102503.25;;;6.80;100.00
38630;BME280;24384;51.988;4.644;2024-01-30T00:30:17;102509.38;;;6.82;100.00
38630;BME280;24384;51.988;4.644;2024-01-30T00:32:43;102494.47;;;6.75;100.00
38630;BME280;24384;51.988;4.644;2024-01-30T00:35:08;102483.06;;;6.73;100.00
38630;BME280;24384;51.988;4.644;2024-01-30T00:37:35;102471.06;;;6.98;100.00
38630;BME280;24384;51.988;4.644;2024-01-30T00:40:00;102483.31;;;6.99;100.00
38630;BME280;24384;51.988;4.644;2024-01-30T00:42:26;102473.75;;;7.05;100.00
38630;BME280;24384;51.988;4.644;2024-01-30T00:44:51;102471.13;;;7.03;100.00
38630;BME280;24384;51.988;4.644;2024-01-30T00:47:16;102470.19;;;6.98;100.00
38630;BME280;24384;51.988;4.644;2024-01-30T00:49:42;102487.72;;;7.05;100.00
38630;BME280;24384;51.988;4.644;2024-01-30T00:52:07;102480.69;;;7.01;100.00
38630;BME280;24384;51.988;4.644;2024-01-30T00:54:32;102482.47;;;7.04;100.00
38630;BME280;24384;51.988;4.644;2024-01-30T00:56:57;102495.63;;;7.10;100.00
38630;BME280;24384;51.988;4.644;2024-01-30T00:59:23;102499.16;;;7.13;100.00
38630;BME280;24384;51.988;4.644;2024-01-30T01:01:48;102508.88;;;7.25;100.00
38630;BME280;24384;51.988;4.644;2024-01-30T01:04:13;102504.50;;;7.26;100.00
38630;BME280;24384;51.988;4.644;2024-01-30T01:06:39;102499.22;;;7.21;100.00
38630;BME280;24384;51.988;4.644;2024-01-30T01:09:04;102499.31;;;7.33;100.00
38630;BME280;24384;51.988;4.644;2024-01-30T01:11:29;102495.75;;;7.27;100.00
38630;BME280;24384;51.988;4.644;2024-01-30T01:13:55;102490.59;;;7.38;100.00
38630;BME280;24384;51.988;4.644;2024-01-30T01:16:20;102483.53;;;7.30;100.00
38630;BME280;24384;51.988;4.644;2024-01-30T01:18:45;102483.59;;;7.41;100.00
38630;BME280;24384;51.988;4.644;2024-01-30T01:21:10;102474.00;;;7.43;100.00
38630;BME280;24384;51.988;4.644;2024-01-30T01:23:37;102476.47;;;7.20;100.00
38630;BME280;24384;51.988;4.644;2024-01-30T01:26:02;102478.84;;;6.88;100.00
38630;BME280;24384;51.988;4.644;2024-01-30T01:28:28;102472.59;;;6.73;100.00
38630;BME280;24384;51.988;4.644;2024-01-30T01:30:53;102479.56;;;6.71;100.00
38630;BME280;24384;51.988;4.644;2024-01-30T01:33:24;102471.69;;;6.68;100.00
38630;BME280;24384;51.988;4.644;2024-01-30T01:35:49;102466.59;;;6.88;100.00
38630;BME280;24384;51.988;4.644;2024-01-30T01:38:15;102450.97;;;6.99;100.00
38630;BME280;24384;51.988;4.644;2024-01-30T01:40:40;102466.72;;;7.02;100.00
38630;BME280;24384;51.988;4.644;2024-01-30T01:43:06;102462.31;;;7.01;100.00
38630;BME280;24384;51.988;4.644;2024-01-30T01:45:31;102458.13;;;7.22;100.00
38630;BME280;24384;51.988;4.644;2024-01-30T01:47:56;102461.63;;;7.24;100.00
38630;BME280;24384;51.988;4.644;2024-01-30T01:50:22;102458.16;;;7.28;100.00
38630;BME280;24384;51.988;4.644;2024-01-30T01:52:48;102471.31;;;7.34;100.00
38630;BME280;24384;51.988;4.644;2024-01-30T01:55:18;102486.91;;;7.12;100.00
38630;BME280;24384;51.988;4.644;2024-01-30T01:57:47;102483.31;;;6.99;100.00
38630;BME280;24384;51.988;4.644;2024-01-30T02:00:13;102471.16;;;7.11;100.00
38630;BME280;24384;51.988;4.644;2024-01-30T02:02:39;102480.00;;;7.22;100.00
38630;BME280;24384;51.988;4.644;2024-01-30T02:05:05;102473.94;;;7.31;100.00
38630;BME280;24384;51.988;4.644;2024-01-30T02:07:31;102466.06;;;7.31;100.00
38630;BME280;24384;51.988;4.644;2024-01-30T02:09:57;102469.59;;;7.39;100.00
38630;BME280;24384;51.988;4.644;2024-01-30T02:12:22;102459.06;;;7.34;100.00
38630;BME280;24384;51.988;4.644;2024-01-30T02:14:48;102449.47;;;7.40;100.00
38630;BME280;24384;51.988;4.644;2024-01-30T02:17:15;102442.53;;;7.46;100.00
38630;BME280;24384;51.988;4.644;2024-01-30T02:19:40;102439.91;;;7.45;100.00
38630;BME280;24384;51.988;4.644;2024-01-30T02:22:06;102442.53;;;7.49;100.00
38630;BME280;24384;51.988;4.644;2024-01-30T02:24:32;102446.91;;;7.49;100.00
38630;BME280;24384;51.988;4.644;2024-01-30T02:26:57;102442.59;;;7.57;100.00
38630;BME280;24384;51.988;4.644;2024-01-30T02:29:23;102452.97;;;7.35;100.00
38630;BME280;24384;51.988;4.644;2024-01-30T02:31:48;102450.22;;;7.19;100.00
38630;BME280;24384;51.988;4.644;2024-01-30T02:34:14;102450.19;;;7.12;100.00
38630;BME280;24384;51.988;4.644;2024-01-30T02:36:42;102455.34;;;6.98;100.00
38630;BME280;24384;51.988;4.644;2024-01-30T02:39:08;102452.66;;;6.91;100.00
38630;BME280;24384;51.988;4.644;2024-01-30T02:41:33;102456.03;;;6.77;100.00
38630;BME280;24384;51.988;4.644;2024-01-30T02:43:58;102443.72;;;6.69;100.00
38630;BME280;24384;51.988;4.644;2024-01-30T02:46:24;102441.06;;;6.67;100.00
38630;BME280;24384;51.988;4.644;2024-01-30T02:48:49;102432.25;;;6.57;100.00
38630;BME280;24384;51.988;4.644;2024-01-30T02:51:14;102440.09;;;6.56;100.00
38630;BME280;24384;51.988;4.644;2024-01-30T02:53:41;102433.94;;;6.51;100.00
38630;BME280;24384;51.988;4.644;2024-01-30T02:56:06;102429.53;;;6.48;100.00
38630;BME280;24384;51.988;4.644;2024-01-30T02:58:36;102424.47;;;6.68;100.00
38630;BME280;24384;51.988;4.644;2024-01-30T03:01:02;102420.03;;;6.59;100.00
38630;BME280;24384;51.988;4.644;2024-01-30T03:03:27;102419.25;;;6.70;100.00
38630;BME280;24384;51.988;4.644;2024-01-30T03:05:52;102414.88;;;6.70;100.00
38630;BME280;24384;51.988;4.644;2024-01-30T03:08:19;102412.38;;;6.86;100.00
38630;BME280;24384;51.988;4.644;2024-01-30T03:10:44;102413.28;;;6.86;100.00
38630;BME280;24384;51.988;4.644;2024-01-30T03:13:10;102404.50;;;6.86;100.00
38630;BME280;24384;51.988;4.644;2024-01-30T03:15:35;102416.66;;;6.73;100.00
38630;BME280;24384;51.988;4.644;2024-01-30T03:18:01;102418.34;;;6.66;100.00
38630;BME280;24384;51.988;4.644;2024-01-30T03:20:28;102418.31;;;6.61;100.00
38630;BME280;24384;51.988;4.644;2024-01-30T03:22:55;102419.13;;;6.56;100.00
38630;BME280;24384;51.988;4.644;2024-01-30T03:25:20;102418.22;;;6.51;100.00
38630;BME280;24384;51.988;4.644;2024-01-30T03:27:45;102415.59;;;6.51;100.00
38630;BME280;24384;51.988;4.644;2024-01-30T03:30:11;102412.00;;;6.42;100.00
38630;BME280;24384;51.988;4.644;2024-01-30T03:32:36;102413.81;;;6.48;100.00
38630;BME280;24384;51.988;4.644;2024-01-30T03:35:01;102405.03;;;6.41;100.00
38630;BME280;24384;51.988;4.644;2024-01-30T03:37:27;102418.19;;;6.46;100.00
38630;BME280;24384;51.988;4.644;2024-01-30T03:39:52;102418.13;;;6.41;100.00
38630;BME280;24384;51.988;4.644;2024-01-30T03:42:17;102423.44;;;6.48;100.00
38630;BME280;24384;51.988;4.644;2024-01-30T03:44:44;102415.63;;;6.54;100.00
38630;BME280;24384;51.988;4.644;2024-01-30T03:47:10;102408.66;;;6.56;100.00
38630;BME280;24384;51.988;4.644;2024-01-30T03:49:35;102407.88;;;6.66;100.00
38630;BME280;24384;51.988;4.644;2024-01-30T03:52:00;102413.13;;;6.68;100.00
38630;BME280;24384;51.988;4.644;2024-01-30T03:54:25;102407.91;;;6.72;100.00
38630;BME280;24384;51.988;4.644;2024-01-30T03:56:51;102411.44;;;6.77;100.00
38630;BME280;24384;51.988;4.644;2024-01-30T03:59:16;102407.09;;;6.79;100.00
38630;BME280;24384;51.988;4.644;2024-01-30T04:01:47;102403.66;;;6.87;100.00
38630;BME280;24384;51.988;4.644;2024-01-30T04:04:12;102402.81;;;6.92;100.00
38630;BME280;24384;51.988;4.644;2024-01-30T04:06:37;102407.19;;;6.95;100.00
38630;BME280;24384;51.988;4.644;2024-01-30T04:09:03;102399.34;;;6.99;100.00
38630;BME280;24384;51.988;4.644;2024-01-30T04:11:28;102400.25;;;7.00;100.00
38630;BME280;24384;51.988;4.644;2024-01-30T04:13:54;102399.41;;;7.06;100.00
38630;BME280;24384;51.988;4.644;2024-01-30T04:16:21;102412.53;;;7.09;100.00
38630;BME280;24384;51.988;4.644;2024-01-30T04:18:47;102395.09;;;7.11;100.00
38630;BME280;24384;51.988;4.644;2024-01-30T04:21:13;102394.16;;;7.07;100.00
38630;BME280;24384;51.988;4.644;2024-01-30T04:23:39;102387.16;;;7.05;100.00
38630;BME280;24384;51.988;4.644;2024-01-30T04:26:05;102394.16;;;7.09;100.00
38630;BME280;24384;51.988;4.644;2024-01-30T04:28:30;102397.69;;;7.11;100.00
38630;BME280;24384;51.988;4.644;2024-01-30T04:30:56;102382.84;;;7.11;100.00
38630;BME280;24384;51.988;4.644;2024-01-30T04:33:21;102386.34;;;7.16;100.00
38630;BME280;24384;51.988;4.644;2024-01-30T04:35:46;102377.63;;;7.17;100.00
38630;BME280;24384;51.988;4.644;2024-01-30T04:38:11;102383.72;;;7.18;100.00
38630;BME280;24384;51.988;4.644;2024-01-30T04:40:37;102376.75;;;7.19;100.00
38630;BME280;24384;51.988;4.644;2024-01-30T04:43:02;102373.28;;;7.29;100.00
38630;BME280;24384;51.988;4.644;2024-01-30T04:45:28;102373.28;;;7.26;100.00
38630;BME280;24384;51.988;4.644;2024-01-30T04:47:53;102377.69;;;7.28;100.00
38630;BME280;24384;51.988;4.644;2024-01-30T04:50:18;102369.78;;;7.25;100.00
38630;BME280;24384;51.988;4.644;2024-01-30T04:52:45;102377.66;;;7.27;100.00
38630;BME280;24384;51.988;4.644;2024-01-30T04:55:10;102368.00;;;7.23;100.00
38630;BME280;24384;51.988;4.644;2024-01-30T04:57:35;102376.75;;;7.20;100.00
38630;BME280;24384;51.988;4.644;2024-01-30T05:00:01;102374.13;;;7.17;100.00
38630;BME280;24384;51.988;4.644;2024-01-30T05:02:27;102371.50;;;7.17;100.00
38630;BME280;24384;51.988;4.644;2024-01-30T05:04:52;102377.69;;;7.28;100.00
38630;BME280;24384;51.988;4.644;2024-01-30T05:07:17;102376.88;;;7.39;100.00
38630;BME280;24384;51.988;4.644;2024-01-30T05:09:43;102375.13;;;7.42;100.00
38630;BME280;24384;51.988;4.644;2024-01-30T05:12:08;102378.63;;;7.46;100.00
38630;BME280;24384;51.988;4.644;2024-01-30T05:14:34;102362.88;;;7.44;100.00
38630;BME280;24384;51.988;4.644;2024-01-30T05:16:59;102375.16;;;7.50;100.00
38630;BME280;24384;51.988;4.644;2024-01-30T05:19:25;102366.44;;;7.54;100.00
38630;BME280;24384;51.988;4.644;2024-01-30T05:21:50;102364.66;;;7.55;100.00
38630;BME280;24384;51.988;4.644;2024-01-30T05:24:15;102362.03;;;7.55;100.00
38630;BME280;24384;51.988;4.644;2024-01-30T05:26:41;102365.53;;;7.58;100.00
38630;BME280;24384;51.988;4.644;2024-01-30T05:29:06;102360.31;;;7.60;100.00
38630;BME280;24384;51.988;4.644;2024-01-30T05:31:33;102372.56;;;7.61;100.00
38630;BME280;24384;51.988;4.644;2024-01-30T05:33:59;102369.06;;;7.60;100.00
38630;BME280;24384;51.988;4.644;2024-01-30T05:36:25;102374.34;;;7.62;100.00
38630;BME280;24384;51.988;4.644;2024-01-30T05:38:50;102370.81;;;7.60;100.00
38630;BME280;24384;51.988;4.644;2024-01-30T05:41:17;102369.09;;;7.62;100.00
38630;BME280;24384;51.988;4.644;2024-01-30T05:43:42;102377.81;;;7.62;100.00
38630;BME280;24384;51.988;4.644;2024-01-30T05:46:07;102379.59;;;7.63;100.00
38630;BME280;24384;51.988;4.644;2024-01-30T05:48:32;102375.22;;;7.67;100.00
38630;BME280;24384;51.988;4.644;2024-01-30T05:51:00;102381.34;;;7.66;100.00
38630;BME280;24384;51.988;4.644;2024-01-30T05:53:25;102376.09;;;7.69;100.00
38630;BME280;24384;51.988;4.644;2024-01-30T05:55:51;102378.72;;;7.70;100.00
38630;BME280;24384;51.988;4.644;2024-01-30T05:58:16;102391.00;;;7.75;100.00
38630;BME280;24384;51.988;4.644;2024-01-30T06:00:41;102384.91;;;7.77;100.00
38630;BME280;24384;51.988;4.644;2024-01-30T06:03:07;102396.25;;;7.76;100.00
38630;BME280;24384;51.988;4.644;2024-01-30T06:05:32;102391.00;;;7.76;100.00
38630;BME280;24384;51.988;4.644;2024-01-30T06:07:57;102387.50;;;7.74;100.00
38630;BME280;24384;51.988;4.644;2024-01-30T06:10:23;102394.50;;;7.75;100.00
38630;BME280;24384;51.988;4.644;2024-01-30T06:12:48;102398.91;;;7.79;100.00
38630;BME280;24384;51.988;4.644;2024-01-30T06:15:14;102394.53;;;7.81;100.00
38630;BME280;24384;51.988;4.644;2024-01-30T06:17:39;102393.66;;;7.85;100.00
38630;BME280;24384;51.988;4.644;2024-01-30T06:20:05;102387.56;;;7.91;100.00
38630;BME280;24384;51.988;4.644;2024-01-30T06:22:31;102383.19;;;7.98;100.00
38630;BME280;24384;51.988;4.644;2024-01-30T06:24:56;102394.56;;;7.97;100.00
38630;BME280;24384;51.988;4.644;2024-01-30T06:27:21;102390.22;;;7.97;100.00
38630;BME280;24384;51.988;4.644;2024-01-30T06:29:47;102397.22;;;8.03;100.00
38630;BME280;24384;51.988;4.644;2024-01-30T06:32:12;102395.47;;;8.02;100.00
38630;BME280;24384;51.988;4.644;2024-01-30T06:34:37;102396.34;;;8.04;100.00
38630;BME280;24384;51.988;4.644;2024-01-30T06:37:05;102398.13;;;8.11;100.00
38630;BME280;24384;51.988;4.644;2024-01-30T06:39:30;102391.97;;;8.09;100.00
38630;BME280;24384;51.988;4.644;2024-01-30T06:41:55;102397.22;;;8.12;100.00
38630;BME280;24384;51.988;4.644;2024-01-30T06:44:22;102397.22;;;8.09;100.00
38630;BME280;24384;51.988;4.644;2024-01-30T06:46:48;102394.59;;;8.07;100.00
38630;BME280;24384;51.988;4.644;2024-01-30T06:49:13;102400.75;;;8.06;100.00
38630;BME280;24384;51.988;4.644;2024-01-30T06:51:38;102394.59;;;8.09;100.00
38630;BME280;24384;51.988;4.644;2024-01-30T06:54:04;102395.50;;;8.11;100.00
38630;BME280;24384;51.988;4.644;2024-01-30T06:56:29;102403.38;;;8.10;100.00
38630;BME280;24384;51.988;4.644;2024-01-30T06:58:55;102403.38;;;8.05;100.00
38630;BME280;24384;51.988;4.644;2024-01-30T07:01:20;102401.63;;;8.12;100.00
38630;BME280;24384;51.988;4.644;2024-01-30T07:03:46;102412.13;;;8.12;100.00
38630;BME280;24384;51.988;4.644;2024-01-30T07:06:14;102406.00;;;8.13;100.00
38630;BME280;24384;51.988;4.644;2024-01-30T07:08:39;102410.38;;;8.12;100.00
38630;BME280;24384;51.988;4.644;2024-01-30T07:11:05;102409.53;;;8.22;100.00
38630;BME280;24384;51.988;4.644;2024-01-30T07:13:31;102406.88;;;8.19;100.00
38630;BME280;24384;51.988;4.644;2024-01-30T07:15:56;102417.41;;;8.22;100.00
38630;BME280;24384;51.988;4.644;2024-01-30T07:18:22;102413.91;;;8.23;100.00
38630;BME280;24384;51.988;4.644;2024-01-30T07:20:47;102408.66;;;8.27;100.00
38630;BME280;24384;51.988;4.644;2024-01-30T07:23:15;102420.91;;;8.31;100.00
38630;BME280;24384;51.988;4.644;2024-01-30T07:25:43;102421.81;;;8.34;100.00
38630;BME280;24384;51.988;4.644;2024-01-30T07:28:09;102426.19;;;8.35;100.00
38630;BME280;24384;51.988;4.644;2024-01-30T07:30:38;102424.47;;;8.40;100.00
38630;BME280;24384;51.988;4.644;2024-01-30T07:33:04;102436.75;;;8.51;100.00
38630;BME280;24384;51.988;4.644;2024-01-30T07:35:29;102440.28;;;8.50;100.00
38630;BME280;24384;51.988;4.644;2024-01-30T07:37:54;102437.66;;;8.56;100.00
38630;BME280;24384;51.988;4.644;2024-01-30T07:40:20;102441.16;;;8.58;100.00
38630;BME280;24384;51.988;4.644;2024-01-30T07:42:48;102443.78;;;8.66;100.00
38630;BME280;24384;51.988;4.644;2024-01-30T07:45:13;102441.16;;;8.72;100.00
38630;BME280;24384;51.988;4.644;2024-01-30T07:47:39;102439.41;;;8.71;100.00
38630;BME280;24384;51.988;4.644;2024-01-30T07:50:04;102446.41;;;8.70;100.00
38630;BME280;24384;51.988;4.644;2024-01-30T07:52:30;102447.28;;;8.71;100.00
38630;BME280;24384;51.988;4.644;2024-01-30T07:54:55;102449.91;;;8.77;100.00
38630;BME280;24384;51.988;4.644;2024-01-30T07:57:21;102445.56;;;8.81;100.00
38630;BME280;24384;51.988;4.644;2024-01-30T07:59:46;102449.06;;;8.80;100.00
38630;BME280;24384;51.988;4.644;2024-01-30T08:02:12;102448.19;;;8.85;100.00
38630;BME280;24384;51.988;4.644;2024-01-30T08:04:38;102449.91;;;8.91;100.00
38630;BME280;24384;51.988;4.644;2024-01-30T08:07:03;102453.44;;;8.93;100.00
38630;BME280;24384;51.988;4.644;2024-01-30T08:09:28;102457.81;;;8.97;100.00
38630;BME280;24384;51.988;4.644;2024-01-30T08:11:55;102465.69;;;9.03;100.00
38630;BME280;24384;51.988;4.644;2024-01-30T08:14:21;102463.97;;;9.08;100.00
38630;BME280;24384;51.988;4.644;2024-01-30T08:16:46;102466.59;;;9.16;100.00
38630;BME280;24384;51.988;4.644;2024-01-30T08:19:11;102464.81;;;9.27;100.00
38630;BME280;24384;51.988;4.644;2024-01-30T08:21:37;102478.84;;;9.31;100.00
38630;BME280;24384;51.988;4.644;2024-01-30T08:24:03;102459.53;;;9.38;100.00
38630;BME280;24384;51.988;4.644;2024-01-30T08:26:30;102477.94;;;9.41;100.00
38630;BME280;24384;51.988;4.644;2024-01-30T08:28:55;102470.03;;;9.49;100.00
38630;BME280;24384;51.988;4.644;2024-01-30T08:31:20;102472.66;;;9.54;100.00
38630;BME280;24384;51.988;4.644;2024-01-30T08:33:45;102470.03;;;9.52;100.00
38630;BME280;24384;51.988;4.644;2024-01-30T08:36:11;102465.63;;;9.48;100.00
38630;BME280;24384;51.988;4.644;2024-01-30T08:38:36;102479.69;;;9.47;100.00
38630;BME280;24384;51.988;4.644;2024-01-30T08:41:01;102481.44;;;9.51;100.00
38630;BME280;24384;51.988;4.644;2024-01-30T08:43:28;102464.75;;;9.49;100.00
38630;BME280;24384;51.988;4.644;2024-01-30T08:45:53;102471.75;;;9.61;100.00
38630;BME280;24384;51.988;4.644;2024-01-30T08:48:18;102479.66;;;9.59;100.00
38630;BME280;24384;51.988;4.644;2024-01-30T08:50:44;102474.41;;;9.56;100.00
38630;BME280;24384;51.988;4.644;2024-01-30T08:53:09;102486.69;;;9.53;100.00
38630;BME280;24384;51.988;4.644;2024-01-30T08:55:35;102484.94;;;9.58;100.00
38630;BME280;24384;51.988;4.644;2024-01-30T08:58:01;102480.53;;;9.63;100.00
38630;BME280;24384;51.988;4.644;2024-01-30T09:00:29;102482.28;;;9.62;100.00
38630;BME280;24384;51.988;4.644;2024-01-30T09:02:54;102490.19;;;9.65;100.00
38630;BME280;24384;51.988;4.644;2024-01-30T09:05:19;102479.63;;;9.70;100.00
38630;BME280;24384;51.988;4.644;2024-01-30T09:07:47;102479.63;;;9.68;100.00
38630;BME280;24384;51.988;4.644;2024-01-30T09:10:12;102483.16;;;9.64;100.00
38630;BME280;24384;51.988;4.644;2024-01-30T09:12:37;102501.59;;;9.69;100.00
38630;BME280;24384;51.988;4.644;2024-01-30T09:15:03;102497.19;;;9.70;100.00
38630;BME280;24384;51.988;4.644;2024-01-30T09:17:29;102493.69;;;9.66;100.00
38630;BME280;24384;51.988;4.644;2024-01-30T09:19:56;102495.44;;;9.76;100.00
38630;BME280;24384;51.988;4.644;2024-01-30T09:22:21;102505.06;;;9.76;100.00
38630;BME280;24384;51.988;4.644;2024-01-30T09:24:46;102503.34;;;9.72;100.00
38630;BME280;24384;51.988;4.644;2024-01-30T09:27:12;102510.34;;;9.73;100.00
38630;BME280;24384;51.988;4.644;2024-01-30T09:29:37;102510.38;;;9.65;100.00
38630;BME280;24384;51.988;4.644;2024-01-30T09:32:03;102509.50;;;9.64;100.00
38630;BME280;24384;51.988;4.644;2024-01-30T09:34:29;102510.38;;;9.66;100.00
38630;BME280;24384;51.988;4.644;2024-01-30T09:36:54;102509.47;;;9.72;100.00
38630;BME280;24384;51.988;4.644;2024-01-30T09:39:19;102512.97;;;9.76;100.00
38630;BME280;24384;51.988;4.644;2024-01-30T09:41:49;102534.06;;;9.76;100.00
38630;BME280;24384;51.988;4.644;2024-01-30T09:44:16;102527.03;;;9.76;100.00
38630;BME280;24384;51.988;4.644;2024-01-30T09:46:42;102524.44;;;9.67;100.00
38630;BME280;24384;51.988;4.644;2024-01-30T09:49:08;102518.25;;;9.70;100.00
38630;BME280;24384;51.988;4.644;2024-01-30T09:51:34;102534.06;;;9.70;100.00
38630;BME280;24384;51.988;4.644;2024-01-30T09:54:02;102543.75;;;9.67;100.00
38630;BME280;24384;51.988;4.644;2024-01-30T09:56:28;102551.66;;;9.67;100.00
38630;BME280;24384;51.988;4.644;2024-01-30T09:58:54;102549.00;;;9.72;100.00
38630;BME280;24384;51.988;4.644;2024-01-30T10:01:19;102551.66;;;9.64;100.00
38630;BME280;24384;51.988;4.644;2024-01-30T10:03:45;102549.88;;;9.63;100.00
38630;BME280;24384;51.988;4.644;2024-01-30T10:06:14;102561.31;;;9.61;100.00
38630;BME280;24384;51.988;4.644;2024-01-30T10:08:39;102556.06;;;9.64;100.00
38630;BME280;24384;51.988;4.644;2024-01-30T10:11:05;102531.44;;;9.59;100.00
38630;BME280;24384;51.988;4.644;2024-01-30T10:13:31;102550.78;;;9.61;100.00
38630;BME280;24384;51.988;4.644;2024-01-30T10:15:57;102554.28;;;9.69;100.00
38630;BME280;24384;51.988;4.644;2024-01-30T10:18:23;102563.97;;;9.59;100.00
38630;BME280;24384;51.988;4.644;2024-01-30T10:20:49;102551.66;;;9.55;100.00
38630;BME280;24384;51.988;4.644;2024-01-30T10:23:14;102550.81;;;9.47;100.00
38630;BME280;24384;51.988;4.644;2024-01-30T10:25:40;102555.19;;;9.48;100.00
38630;BME280;24384;51.988;4.644;2024-01-30T10:28:05;102541.16;;;9.26;100.00
38630;BME280;24384;51.988;4.644;2024-01-30T10:30:30;102545.56;;;9.18;100.00
38630;BME280;24384;51.988;4.644;2024-01-30T10:32:56;102565.72;;;9.19;100.00
38630;BME280;24384;51.988;4.644;2024-01-30T10:35:21;102568.34;;;9.20;100.00
38630;BME280;24384;51.988;4.644;2024-01-30T10:37:48;102571.88;;;9.22;100.00
38630;BME280;24384;51.988;4.644;2024-01-30T10:40:14;102578.88;;;9.14;100.00
38630;BME280;24384;51.988;4.644;2024-01-30T10:42:45;102584.13;;;9.11;100.00
38630;BME280;24384;51.988;4.644;2024-01-30T10:45:12;102585.91;;;9.04;100.00
38630;BME280;24384;51.988;4.644;2024-01-30T10:47:40;102586.75;;;9.02;100.00
38630;BME280;24384;51.988;4.644;2024-01-30T10:50:07;102581.50;;;8.95;100.00
38630;BME280;24384;51.988;4.644;2024-01-30T10:52:33;102589.38;;;8.91;100.00
38630;BME280;24384;51.988;4.644;2024-01-30T10:54:59;102576.22;;;8.83;100.00
38630;BME280;24384;51.988;4.644;2024-01-30T10:57:25;102587.63;;;8.79;100.00
38630;BME280;24384;51.988;4.644;2024-01-30T10:59:54;102577.09;;;8.76;100.00
38630;BME280;24384;51.988;4.644;2024-01-30T11:02:22;102585.84;;;8.72;100.00
38630;BME280;24384;51.988;4.644;2024-01-30T11:04:49;102583.19;;;8.70;100.00
38630;BME280;24384;51.988;4.644;2024-01-30T11:07:18;102570.91;;;8.65;100.00
38630;BME280;24384;51.988;4.644;2024-01-30T11:09:59;102587.56;;;8.59;100.00
38630;BME280;24384;51.988;4.644;2024-01-30T11:12:28;102593.69;;;8.56;100.00
38630;BME280;24384;51.988;4.644;2024-01-30T11:15:11;102582.25;;;8.47;100.00
38630;BME280;24384;51.988;4.644;2024-01-30T11:17:53;102617.25;;;8.39;100.00
38630;BME280;24384;51.988;4.644;2024-01-30T11:20:30;102629.44;;;8.23;100.00
38630;BME280;24384;51.988;4.644;2024-01-30T11:23:01;102609.28;;;8.22;100.00
38630;BME280;24384;51.988;4.644;2024-01-30T11:25:31;102581.22;;;8.20;100.00
38630;BME280;24384;51.988;4.644;2024-01-30T11:27:57;102602.22;;;8.15;100.00
38630;BME280;24384;51.988;4.644;2024-01-30T11:30:29;102615.34;;;8.12;100.00
38630;BME280;24384;51.988;4.644;2024-01-30T11:35:31;102629.34;;;8.06;100.00
38630;BME280;24384;51.988;4.644;2024-01-30T11:37:58;102623.22;;;8.11;100.00
38630;BME280;24384;51.988;4.644;2024-01-30T11:40:26;102631.94;;;7.99;100.00
38630;BME280;24384;51.988;4.644;2024-01-30T11:42:53;102631.00;;;7.94;100.00
38630;BME280;24384;51.988;4.644;2024-01-30T11:45:19;102635.38;;;7.88;100.00
38630;BME280;24384;51.988;4.644;2024-01-30T11:47:44;102633.59;;;7.86;100.00
38630;BME280;24384;51.988;4.644;2024-01-30T11:50:10;102610.84;;;7.88;100.00
38630;BME280;24384;51.988;4.644;2024-01-30T11:52:36;102613.50;;;7.89;100.00
38630;BME280;24384;51.988;4.644;2024-01-30T11:55:02;102626.63;;;7.88;100.00
38630;BME280;24384;51.988;4.644;2024-01-30T11:57:28;102622.28;;;7.98;100.00
38630;BME280;24384;51.988;4.644;2024-01-30T11:59:53;102621.41;;;7.96;100.00
38630;BME280;24384;51.988;4.644;2024-01-30T12:02:18;102608.25;;;7.93;100.00
38630;BME280;24384;51.988;4.644;2024-01-30T12:04:44;102617.88;;;7.94;100.00
38630;BME280;24384;51.988;4.644;2024-01-30T12:07:09;102615.28;;;8.00;100.00
38630;BME280;24384;51.988;4.644;2024-01-30T12:09:35;102620.50;;;7.95;100.00
38630;BME280;24384;51.988;4.644;2024-01-30T12:12:00;102621.41;;;7.96;100.00
38630;BME280;24384;51.988;4.644;2024-01-30T12:14:26;102650.34;;;7.99;100.00
38630;BME280;24384;51.988;4.644;2024-01-30T12:16:52;102633.66;;;7.97;100.00
38630;BME280;24384;51.988;4.644;2024-01-30T12:19:24;102638.88;;;7.92;100.00
38630;BME280;24384;51.988;4.644;2024-01-30T12:21:57;102642.41;;;7.91;100.00
38630;BME280;24384;51.988;4.644;2024-01-30T12:24:27;102628.34;;;7.89;100.00
38630;BME280;24384;51.988;4.644;2024-01-30T12:26:58;102636.19;;;7.81;100.00
38630;BME280;24384;51.988;4.644;2024-01-30T12:29:24;102630.97;;;7.86;100.00
38630;BME280;24384;51.988;4.644;2024-01-30T12:31:53;102641.41;;;7.78;100.00
38630;BME280;24384;51.988;4.644;2024-01-30T12:34:18;102655.44;;;7.77;100.00
38630;BME280;24384;51.988;4.644;2024-01-30T12:36:47;102644.88;;;7.73;100.00
38630;BME280;24384;51.988;4.644;2024-01-30T12:39:14;102650.16;;;7.76;100.00
38630;BME280;24384;51.988;4.644;2024-01-30T12:41:39;102651.00;;;7.73;100.00
38630;BME280;24384;51.988;4.644;2024-01-30T12:44:05;102656.19;;;7.64;100.00
38630;BME280;24384;51.988;4.644;2024-01-30T12:46:30;102657.00;;;7.58;100.00